Umm Slal — V7PW3 — position and weather

sailwx.info

Track history (hours):
 
Tides and Currents Weather Stations Pressure Air Temp Water Temp Dewpoint Dewpoint Depression Visibility Wind Speed Wind Dir Waves Ship Positions

Umm Slal

Last reported at 2016-Jul-24 20:24 UTC. Time now 2016-Jul-25 02:30 UTC.
Position N 36°37' E 125°56'.

Length 345 m; draft 12.2 m.

Type: Ship (hazmat cat D). MMSI: 538003300.

Date/timePositionNaut miles runAvg speedWind from/ knotsBaromVisibWave heightAir tempDewpointWater temp
2016-Jul-24 20:24N 36°37' E 125°56'5016.4
2016-Jul-24 17:21N 35°54' E 125°23'1815.6
2016-Jul-24 16:13N 35°40' E 125°10'1015.3
2016-Jul-24 15:33N 35°32' E 125°03'  
2016-Jul-18 06:11N 01°15' E 104°12'1015.6
2016-Jul-18 05:33N 01°15' E 104°02'1312.2
2016-Jul-18 04:27N 01°10' E 103°49'7213.7
2016-Jul-17 23:11N 01°39' E 102°43'1117.2
2016-Jul-17 22:33N 01°43' E 102°33'  
Track history (hours):
 
Tides and Currents Weather Stations Pressure Air Temp Water Temp Dewpoint Dewpoint Depression Visibility Wind Speed Wind Dir Waves Ship Positions

Umm Slal

Last reported at 2016-Jul-24 20:24 UTC. Time now 2016-Jul-25 02:30 UTC.
Position N 36°37' E 125°56'.

Length 345 m; draft 12.2 m.

Type: Ship (hazmat cat D). MMSI: 538003300.

Date/timePositionNaut miles runAvg speedWind from/ knotsBaromVisibWave heightAir tempDewpointWater temp
2016-Jul-24 20:24N 36°37' E 125°56'5016.4
2016-Jul-24 17:21N 35°54' E 125°23'1815.6
2016-Jul-24 16:13N 35°40' E 125°10'1015.3
2016-Jul-24 15:33N 35°32' E 125°03'  
2016-Jul-18 06:11N 01°15' E 104°12'1015.6
2016-Jul-18 05:33N 01°15' E 104°02'1312.2
2016-Jul-18 04:27N 01°10' E 103°49'7213.7
2016-Jul-17 23:11N 01°39' E 102°43'1117.2
2016-Jul-17 22:33N 01°43' E 102°33'  

Dump ship's entire track history